Monitoraggio
Con il sistema optoelettronico realizzato è possibile monitorare il cielo durante tutto l’arco della giornata. La All-Sky-Camera utilizzata è in grado di riprendere una porzione di cielo superiore rispetto alle fotocamere tradizionali, perché dotata di un obiettivo fish-eye che garantisce una più ampia copertura angolare. Attualmente, vengono catturate 24 immagini al giorno, una ogni ora e vengono inviate ad un server remoto per la creazione di un database fruibile attraverso il sito web dedicato. Sempre al fine di monitorare il cielo, Il sistema è stato dotato di sensori temperatura, di umidità, di pressione e di luminosità. In particolare, la misurazione diretta temperatura al suolo e indiretta del cielo (attraverso un sensore a infrarossi) ha lo scopo di fornire informazioni sullo stato di nuvolosità del cielo sfruttando il gradiente termico.
| Data | Temperatura[°C] | Umidità[%] | Pressione[Pa] | Luminosità[lx] |
|---|---|---|---|---|
| 13:00 06-05-26 | 13.7 | 94 | 1010.7 | 3520 |
| 12:00 06-05-26 | 14 | 87 | 1010.8 | 5438 |
| 11:00 06-05-26 | 13.1 | 92 | 1011 | 8064 |
| 10:00 06-05-26 | 12.9 | 93 | 1010.9 | 8645 |
| 09:00 06-05-26 | 12.8 | 93 | 1010.7 | 3302 |
| 08:00 06-05-26 | 12.1 | 95 | 1011 | 712 |
| 07:00 06-05-26 | 11.7 | 97 | 1011.4 | 227 |
| 06:00 06-05-26 | 12.2 | 91 | 1011.5 | 74 |
| 05:00 06-05-26 | 12.3 | 88 | 1011.7 | 0 |
| 04:00 06-05-26 | 11.7 | 92 | 1011.8 | 0 |
| 03:00 06-05-26 | 11.9 | 89 | 1012.6 | 0 |
| 02:00 06-05-26 | 11.9 | 90 | 1013.4 | 0 |
| 01:00 06-05-26 | 11.8 | 91 | 1013.9 | 0 |
| 00:00 06-05-26 | 11.6 | 92 | 1014 | 0 |
| 23:00 05-05-26 | 11.9 | 93 | 1014 | 0 |
| 22:00 05-05-26 | 12.3 | 94 | 1013.9 | 0 |
| 21:00 05-05-26 | 12.5 | 95 | 1013.6 | 0 |
| 20:00 05-05-26 | 12.7 | 95 | 1013.6 | 130 |
| 19:00 05-05-26 | 12.9 | 95 | 1013.7 | 218 |
| 18:00 05-05-26 | 13.7 | 89 | 1013.6 | 877 |
| 17:00 05-05-26 | 14 | 91 | 1013.6 | 1232 |
| 16:00 05-05-26 | 15.8 | 74 | 1013.1 | 2500 |
| 15:00 05-05-26 | 15.6 | 79 | 1013.6 | 3254 |
| 14:00 05-05-26 | 14.9 | 87 | 1014 | 11129 |























